map of YQK home
YQK - Airport
Location
City:  Kenora, Ontario, Canada
Name:Kenora Airport
ICAO:CYQK
IATA:YQK

Details
Type:Airport (Airfield)
Use:Public/Civil
Latitude:4947'18"N (49.788333)
Longitude:9421'47"W (-94.363055)
Elevation:1344 ft (410 m)
Variation:0.60E (WMM2015v2 magnetic declination)
-0.02 annual change
Runways:1
Longest:5800 ft (1768 m), paved

Time
Time Zone:UTC-5 (DST-4)
Local Time:

Weather
METAR:CYQK 041400Z 04010G16KT 1/2SM -SN BLSN VV005 M21/M23 A2997 RMK SN8 SLP192
TAF:CYQK 041338Z 0414/0502 03010G20KT 3/4SM -SN VV006
TEMPO 0414/0418 3SM -SN OVC012
FM041800 02010G20KT 2SM -SN OVC010
TEMPO 0418/0421 5SM -SN OVC025
FM042100 01010KT P6SM BKN025 OVC080
RMK NXT FCST BY 042000Z

Related Locations
Nearby:
Farthest:YWKS: 10952 mi / 17625 km
Wilkins Runway (Casey), Upper Peterson Glacier, AQ

Find:

   beyond  
but within

Other Information
Maps:
NOTAMs:
Links:
Sources:

  
  • flag of Canada
  • flag of Ontario
  

Airport Diagram

Airport diagram for YQK

Airport diagram PDF

Sectional Chart

Flight Planning
at skyvector.com

Satellite Image

Google Maps Satellite view

 

Copyright © 2004-2019 Karl L. Swartz. All rights reserved.
The Great Circle Mapper name and logo are trademarks of the Great Circle Mapper.
All other trademarks mentioned herein belong to their respective owners.
Please see credits for attibutions and further copyright information.

  Follow gcmap on Facebook Follow gcmap on Twitter GCmap on LinkedIn

hCard Microformat

Geo Microformat